createdAt,value
2022-09-05T00:01:29.539Z,1.30
2022-09-05T00:04:34.651Z,1.13
2022-09-05T00:07:31.174Z,1.37
2022-09-05T00:10:21.839Z,1.93
2022-09-05T00:12:50.886Z,1.60
2022-09-05T00:15:35.143Z,1.43
2022-09-05T00:19:51.676Z,1.50
2022-09-05T00:24:24.865Z,1.10
2022-09-05T00:24:51.374Z,1.57
2022-09-05T00:27:38.716Z,1.50
2022-09-05T00:31:07.680Z,1.87
2022-09-05T00:33:24.567Z,1.50
2022-09-05T00:36:16.817Z,1.67
2022-09-05T00:39:03.161Z,1.20
2022-09-05T00:41:34.307Z,1.60
2022-09-05T00:44:02.583Z,1.40
2022-09-05T00:46:33.783Z,1.43
2022-09-05T00:49:01.028Z,2.17
2022-09-05T00:51:49.249Z,1.43
2022-09-05T00:54:16.417Z,1.30
2022-09-05T00:56:58.770Z,1.33
2022-09-05T00:59:37.550Z,1.37
2022-09-05T01:02:21.384Z,2.03
2022-09-05T01:05:04.838Z,1.53
2022-09-05T01:07:59.437Z,1.27
2022-09-05T01:10:50.286Z,1.80
2022-09-05T01:13:38.628Z,1.43
2022-09-05T01:16:08.358Z,1.87
2022-09-05T01:18:49.811Z,1.40
2022-09-05T01:21:58.349Z,1.73
2022-09-05T01:24:27.779Z,1.30
2022-09-05T01:27:16.512Z,1.57
2022-09-05T01:30:18.253Z,1.60
2022-09-05T01:33:07.702Z,1.87
2022-09-05T01:35:52.339Z,1.40
2022-09-05T01:38:30.877Z,1.53
2022-09-05T01:41:18.366Z,1.30
2022-09-05T01:44:04.596Z,1.77
2022-09-05T01:46:46.062Z,1.33
2022-09-05T01:49:46.121Z,1.40
2022-09-05T01:52:19.821Z,1.40
2022-09-05T01:55:17.580Z,1.53
2022-09-05T01:58:05.510Z,1.40
2022-09-05T02:01:25.496Z,1.50
2022-09-05T02:04:07.965Z,1.93
2022-09-05T02:07:29.835Z,1.87
2022-09-05T02:10:23.336Z,1.83
2022-09-05T02:13:02.874Z,1.33
2022-09-05T02:16:00.253Z,1.50
2022-09-05T02:18:54.939Z,1.40
2022-09-05T02:21:55.606Z,1.77
2022-09-05T02:24:26.559Z,2.13
2022-09-05T02:27:02.105Z,1.60
2022-09-05T02:29:44.673Z,2.90
2022-09-05T02:32:23.935Z,1.40
2022-09-05T02:35:09.539Z,1.70
2022-09-05T02:38:54.367Z,1.57
2022-09-05T02:45:12.351Z,1.60
2022-09-05T02:45:24.195Z,1.30
2022-09-05T02:47:45.844Z,1.23
2022-09-05T02:53:39.167Z,1.40
2022-09-05T02:57:26.978Z,2.07
2022-09-05T02:57:36.306Z,1.43
2022-09-05T02:59:09.651Z,1.70
2022-09-05T03:01:56.416Z,1.33
2022-09-05T03:04:35.369Z,1.70
2022-09-05T03:07:23.176Z,1.70
2022-09-05T03:10:20.107Z,1.70
2022-09-05T03:13:54.489Z,1.33
2022-09-05T03:16:48.425Z,1.30
2022-09-05T03:19:18.059Z,1.40
2022-09-05T03:21:47.944Z,1.60
2022-09-05T03:24:55.968Z,1.80
2022-09-05T03:28:03.968Z,1.60
2022-09-05T03:30:55.189Z,2.60
2022-09-05T03:33:22.417Z,1.70
2022-09-05T03:35:49.617Z,1.50
2022-09-05T03:39:03.234Z,1.77
2022-09-05T03:41:49.726Z,1.43
2022-09-05T03:44:28.776Z,1.40
2022-09-05T03:46:55.988Z,1.60
2022-09-05T03:53:55.035Z,1.60
2022-09-05T03:57:12.144Z,1.57
2022-09-05T03:57:19.760Z,2.60
2022-09-05T03:59:14.300Z,1.57
2022-09-05T04:05:10.938Z,1.70
2022-09-05T04:08:18.542Z,1.47
2022-09-05T04:08:40.945Z,1.37
2022-09-05T04:11:02.346Z,1.50
2022-09-05T04:13:39.289Z,1.50
2022-09-05T04:16:06.584Z,1.77
2022-09-05T04:19:05.297Z,2.40
2022-09-05T04:21:46.896Z,1.67
2022-09-05T04:24:30.409Z,2.10
2022-09-05T04:27:21.649Z,1.60
2022-09-05T04:30:05.021Z,1.30
2022-09-05T04:33:05.135Z,1.67
2022-09-05T04:35:58.629Z,1.70
2022-09-05T04:38:43.500Z,1.60
2022-09-05T04:41:21.372Z,1.40
2022-09-05T04:44:15.314Z,1.37
2022-09-05T04:46:48.935Z,1.53
2022-09-05T04:49:24.447Z,1.63
2022-09-05T04:52:13.796Z,1.53
2022-09-05T04:55:05.844Z,1.83
2022-09-05T04:57:43.045Z,1.40
2022-09-05T05:06:11.234Z,1.20
2022-09-05T05:06:14.815Z,1.30
2022-09-05T05:06:38.390Z,1.20
2022-09-05T05:09:01.011Z,1.70
2022-09-05T05:16:32.546Z,1.97
2022-09-05T05:18:06.249Z,1.67
2022-09-05T05:18:15.468Z,1.90
2022-09-05T05:20:53.317Z,1.53
2022-09-05T05:23:49.027Z,1.53
2022-09-05T05:26:37.133Z,1.67
2022-09-05T05:29:22.448Z,1.63
2022-09-05T05:31:56.720Z,1.57
2022-09-05T05:34:34.694Z,1.40
2022-09-05T05:37:23.429Z,1.83
2022-09-05T05:40:08.752Z,1.60
2022-09-05T05:42:39.773Z,1.40
2022-09-05T05:45:20.745Z,1.60
2022-09-05T05:48:04.095Z,1.60
2022-09-05T05:51:07.822Z,2.47
2022-09-05T05:54:32.816Z,1.67
2022-09-05T05:57:12.570Z,1.60
2022-09-05T06:00:01.193Z,1.50
2022-09-05T06:03:25.851Z,1.77
2022-09-05T06:06:20.296Z,1.10
2022-09-05T06:13:48.862Z,1.80
2022-09-05T06:15:00.914Z,1.70
2022-09-05T06:15:41.437Z,1.60
2022-09-05T06:18:21.753Z,1.30
2022-09-05T06:22:08.617Z,1.40
2022-09-05T06:24:21.403Z,1.77
2022-09-05T06:27:19.312Z,2.07
2022-09-05T06:29:47.284Z,1.50
2022-09-05T06:32:58.306Z,1.30
2022-09-05T06:35:49.335Z,1.90
2022-09-05T06:38:51.563Z,1.10
2022-09-05T06:41:43.794Z,1.40
2022-09-05T06:44:26.133Z,1.40
2022-09-05T06:47:30.228Z,1.40
2022-09-05T06:50:24.010Z,1.17
2022-09-05T06:53:30.072Z,1.40
2022-09-05T06:56:26.091Z,1.50
2022-09-05T06:58:53.605Z,1.87
2022-09-05T07:01:59.806Z,2.03
2022-09-05T07:05:23.504Z,1.17
2022-09-05T07:07:06.330Z,1.30
2022-09-05T07:09:52.120Z,1.37
2022-09-05T07:12:30.139Z,1.37
2022-09-05T07:15:32.037Z,1.27
2022-09-05T07:18:26.255Z,1.17
2022-09-05T07:21:18.082Z,1.10
2022-09-05T07:24:05.617Z,1.50
2022-09-05T07:26:52.662Z,1.73
2022-09-05T07:29:28.040Z,1.53
2022-09-05T07:31:56.100Z,1.40
2022-09-05T07:34:32.420Z,1.97
2022-09-05T07:37:15.720Z,1.20
2022-09-05T07:40:11.233Z,1.23
2022-09-05T07:43:08.748Z,1.70
2022-09-05T07:45:50.796Z,1.07
2022-09-05T07:48:34.274Z,1.33
2022-09-05T07:54:45.305Z,2.10
2022-09-05T07:57:06.017Z,1.07
2022-09-05T08:00:06.809Z,1.50
2022-09-05T08:02:35.178Z,1.17
2022-09-05T08:05:04.354Z,1.23
2022-09-05T08:07:47.879Z,1.67
2022-09-05T08:10:31.098Z,1.33
2022-09-05T08:13:24.353Z,1.00
2022-09-05T08:16:10.593Z,1.10
2022-09-05T08:18:42.619Z,1.17
2022-09-05T08:21:27.666Z,1.20
2022-09-05T08:23:55.027Z,1.27
2022-09-05T08:26:36.705Z,1.80
2022-09-05T08:29:03.933Z,1.03
2022-09-05T08:31:42.273Z,0.97
2022-09-05T08:34:24.802Z,0.87
2022-09-05T08:37:12.553Z,0.87
2022-09-05T08:39:42.688Z,1.60
2022-09-05T08:42:38.751Z,1.57
2022-09-05T08:46:40.510Z,1.03
2022-09-05T08:48:25.449Z,0.93
2022-09-05T08:50:54.115Z,0.90
2022-09-05T08:53:53.976Z,0.70
2022-09-05T08:56:58.536Z,1.20
2022-09-05T08:59:45.829Z,1.00
2022-09-05T09:02:49.729Z,1.10
2022-09-05T09:05:58.071Z,0.87
2022-09-05T09:08:22.279Z,0.90
2022-09-05T09:11:02.269Z,0.80
2022-09-05T09:13:52.482Z,0.80
2022-09-05T09:16:54.729Z,1.00
2022-09-05T09:19:29.351Z,0.80
2022-09-05T09:22:13.983Z,0.97
2022-09-05T09:25:11.256Z,0.90
2022-09-05T09:28:45.167Z,0.97
2022-09-05T09:30:33.365Z,1.03
2022-09-05T09:33:06.300Z,0.90
2022-09-05T09:35:42.234Z,0.83
2022-09-05T09:38:28.042Z,0.90
2022-09-05T09:41:45.363Z,0.70
2022-09-05T09:44:15.885Z,1.27
2022-09-05T09:46:48.342Z,0.80
2022-09-05T09:49:29.551Z,0.97
2022-09-05T09:52:21.024Z,0.70
2022-09-05T09:55:27.142Z,0.80
2022-09-05T09:57:56.648Z,0.80
2022-09-05T10:00:25.103Z,1.10
2022-09-05T10:04:15.880Z,0.83
2022-09-05T10:11:09.015Z,0.70
2022-09-05T10:11:09.670Z,1.43
2022-09-05T10:13:25.030Z,1.17
2022-09-05T10:16:38.406Z,1.17
2022-09-05T10:22:45.649Z,0.73
2022-09-05T10:25:32.524Z,1.10
2022-09-05T10:28:39.067Z,1.57
2022-09-05T10:33:24.316Z,0.60
2022-09-05T10:35:14.558Z,0.90
2022-09-05T10:37:44.448Z,0.73
2022-09-05T10:40:14.977Z,0.73
2022-09-05T10:42:58.168Z,0.87
2022-09-05T10:45:45.967Z,0.90
2022-09-05T10:48:25.327Z,0.70
2022-09-05T10:51:27.416Z,1.10
2022-09-05T10:54:28.088Z,0.67
2022-09-05T10:57:16.657Z,0.80
2022-09-05T11:02:19.045Z,0.60
2022-09-05T11:02:57.837Z,0.60
2022-09-05T11:05:25.452Z,1.20
2022-09-05T11:08:01.965Z,0.70
2022-09-05T11:10:50.019Z,0.73
2022-09-05T11:13:49.984Z,0.60
2022-09-05T11:16:37.698Z,0.80
2022-09-05T11:19:16.200Z,0.70
2022-09-05T11:22:23.041Z,0.73
2022-09-05T11:25:00.585Z,0.70
2022-09-05T11:27:47.290Z,0.60
2022-09-05T11:30:28.872Z,0.60
2022-09-05T11:39:19.310Z,0.70
2022-09-05T11:39:45.663Z,1.03
2022-09-05T11:39:56.069Z,1.00
2022-09-05T11:42:06.510Z,0.70
2022-09-05T11:44:42.777Z,0.70
2022-09-05T11:47:44.855Z,0.60
2022-09-05T11:50:15.201Z,0.70
2022-09-05T11:53:06.301Z,0.70
2022-09-05T11:56:17.908Z,0.60
2022-09-05T11:59:09.476Z,0.70
2022-09-05T12:02:16.960Z,0.80
2022-09-05T12:05:49.201Z,0.60
2022-09-05T12:08:40.843Z,0.60
2022-09-05T12:11:43.301Z,0.60
2022-09-05T12:14:49.292Z,0.67
2022-09-05T12:17:35.266Z,0.80
2022-09-05T12:23:49.321Z,0.90
2022-09-05T12:27:41.715Z,0.60
2022-09-05T12:29:35.414Z,0.60
2022-09-05T12:33:58.227Z,0.70
2022-09-05T12:36:07.741Z,0.50
2022-09-05T12:40:54.721Z,0.50
2022-09-05T12:41:39.726Z,0.50
2022-09-05T12:41:41.391Z,0.70
2022-09-05T12:44:42.615Z,0.70
2022-09-05T12:47:18.705Z,0.50
2022-09-05T12:50:02.743Z,2.40
2022-09-05T12:52:33.789Z,0.60
2022-09-05T12:55:11.023Z,0.67
2022-09-05T13:01:41.986Z,0.60
2022-09-05T13:03:08.951Z,0.70
2022-09-05T13:03:53.340Z,0.60
2022-09-05T13:06:34.990Z,0.60
2022-09-05T13:09:07.083Z,0.60
2022-09-05T13:14:49.268Z,0.87
2022-09-05T13:15:06.112Z,0.60
2022-09-05T13:18:13.309Z,0.50
2022-09-05T13:20:51.520Z,0.57
2022-09-05T13:23:26.927Z,0.70
2022-09-05T13:26:17.703Z,0.70
2022-09-05T13:29:13.173Z,1.47
2022-09-05T13:37:58.528Z,0.70
2022-09-05T13:38:08.055Z,0.73
2022-09-05T13:38:15.621Z,0.60
2022-09-05T13:40:20.756Z,1.00
2022-09-05T13:43:08.550Z,0.60
2022-09-05T13:46:06.448Z,0.50
2022-09-05T13:51:51.112Z,0.70
2022-09-05T13:54:36.953Z,0.90
2022-09-05T13:57:31.506Z,0.90
2022-09-05T14:00:15.338Z,0.63
2022-09-05T14:03:39.377Z,0.77
2022-09-05T14:06:47.602Z,0.80
2022-09-05T14:09:49.296Z,0.67
2022-09-05T14:12:29.369Z,0.50
2022-09-05T14:15:08.917Z,0.70
2022-09-05T14:17:57.824Z,0.60
2022-09-05T14:20:49.889Z,0.50
2022-09-05T14:23:19.111Z,0.70
2022-09-05T14:26:00.654Z,0.70
2022-09-05T14:28:40.853Z,0.67
2022-09-05T14:37:34.253Z,0.80
2022-09-05T14:37:42.985Z,0.60
2022-09-05T14:37:45.452Z,0.93
2022-09-05T14:40:43.701Z,0.90
2022-09-05T14:43:40.536Z,0.50
2022-09-05T14:46:25.966Z,0.50
2022-09-05T14:49:15.564Z,0.97
2022-09-05T14:51:47.908Z,0.63
2022-09-05T15:02:39.267Z,0.50
2022-09-05T15:02:41.212Z,0.60
2022-09-05T15:03:06.252Z,0.60
2022-09-05T15:05:45.584Z,0.50
2022-09-05T15:09:28.603Z,0.63
2022-09-05T15:12:23.889Z,0.50
2022-09-05T15:14:09.253Z,0.60
2022-09-05T15:16:43.407Z,0.70
2022-09-05T15:19:11.216Z,0.50
2022-09-05T15:21:41.580Z,0.60
2022-09-05T15:24:25.329Z,0.70
2022-09-05T15:27:01.999Z,0.70
2022-09-05T15:29:31.801Z,0.60
2022-09-05T15:32:23.816Z,0.80
2022-09-05T15:34:56.166Z,0.50
2022-09-05T15:37:40.973Z,0.60
2022-09-05T15:40:22.975Z,0.60
2022-09-05T15:43:02.228Z,0.67
2022-09-05T15:45:35.406Z,0.60
2022-09-05T15:48:02.792Z,0.80
2022-09-05T15:50:30.080Z,0.60
2022-09-05T15:52:57.312Z,1.00
2022-09-05T15:55:26.178Z,1.13
2022-09-05T15:58:01.961Z,0.77
2022-09-05T16:00:39.492Z,0.70
2022-09-05T16:05:19.581Z,0.70
2022-09-05T16:10:30.050Z,0.50
2022-09-05T16:10:50.979Z,0.67
2022-09-05T16:12:17.687Z,1.07
2022-09-05T16:14:39.663Z,0.77
2022-09-05T16:23:23.942Z,0.60
2022-09-05T16:23:27.979Z,0.60
2022-09-05T16:23:46.483Z,0.60
2022-09-05T16:26:29.268Z,0.50
2022-09-05T16:28:56.708Z,1.43
2022-09-05T16:31:58.791Z,0.60
2022-09-05T16:34:54.814Z,0.70
2022-09-05T16:37:34.248Z,0.60
2022-09-05T16:40:27.374Z,0.60
2022-09-05T16:43:08.828Z,0.70
2022-09-05T16:45:47.940Z,0.50
2022-09-05T16:48:39.326Z,0.60
2022-09-05T16:51:34.733Z,0.70
2022-09-05T16:54:16.176Z,0.70
2022-09-05T16:56:47.551Z,0.60
2022-09-05T16:59:15.798Z,0.60
2022-09-05T17:01:54.764Z,0.60
2022-09-05T17:05:03.627Z,0.50
2022-09-05T17:07:32.421Z,0.70
2022-09-05T17:10:21.207Z,0.60
2022-09-05T17:12:52.928Z,0.50
2022-09-05T17:15:26.241Z,0.60
2022-09-05T17:18:22.073Z,0.70
2022-09-05T17:20:49.474Z,0.63
2022-09-05T17:27:09.128Z,0.70
2022-09-05T17:29:25.564Z,0.80
2022-09-05T17:29:33.326Z,0.80
2022-09-05T17:31:54.866Z,0.50
2022-09-05T17:34:39.099Z,0.80
2022-09-05T17:37:37.284Z,0.60
2022-09-05T17:40:10.134Z,0.67
2022-09-05T17:42:37.367Z,0.70
2022-09-05T17:45:21.907Z,0.60
2022-09-05T17:47:55.689Z,0.63
2022-09-05T17:50:28.138Z,0.60
2022-09-05T17:53:25.117Z,0.70
2022-09-05T17:55:50.780Z,0.60
2022-09-05T17:58:26.121Z,0.80
2022-09-05T18:01:01.246Z,0.50
2022-09-05T18:03:37.625Z,0.60
2022-09-05T18:06:18.239Z,0.80
2022-09-05T18:08:45.473Z,1.20
2022-09-05T18:11:14.546Z,0.70
2022-09-05T18:14:01.244Z,0.70
2022-09-05T18:16:39.999Z,1.20
2022-09-05T18:22:29.991Z,0.60
2022-09-05T18:25:28.525Z,0.90
2022-09-05T18:28:19.687Z,0.80
2022-09-05T18:30:49.876Z,1.00
2022-09-05T18:33:54.688Z,0.80
2022-09-05T18:36:25.515Z,1.00
2022-09-05T18:39:29.490Z,0.80
2022-09-05T18:42:25.820Z,1.30
2022-09-05T18:45:14.585Z,0.80
2022-09-05T18:48:02.817Z,0.90
2022-09-05T18:50:34.181Z,1.33
2022-09-05T18:53:10.521Z,0.80
2022-09-05T18:56:12.398Z,0.90
2022-09-05T18:59:25.065Z,1.10
2022-09-05T19:02:07.619Z,0.90
2022-09-05T19:05:02.542Z,0.60
2022-09-05T19:07:36.007Z,0.90
2022-09-05T19:10:36.046Z,1.77
2022-09-05T19:13:16.955Z,1.13
2022-09-05T19:16:43.232Z,0.80
2022-09-05T19:19:07.610Z,0.83
2022-09-05T19:21:48.089Z,1.47
2022-09-05T19:24:45.404Z,1.33
2022-09-05T19:28:05.976Z,0.90
2022-09-05T19:36:54.260Z,0.83
2022-09-05T19:37:08.029Z,0.83
2022-09-05T19:37:14.274Z,0.90
2022-09-05T19:38:24.549Z,1.00
2022-09-05T19:47:27.138Z,0.90
2022-09-05T19:47:47.596Z,1.53
2022-09-05T19:47:55.699Z,0.90
2022-09-05T19:49:38.538Z,1.70
2022-09-05T19:52:16.450Z,2.50
2022-09-05T19:54:45.127Z,1.03
2022-09-05T19:57:21.750Z,0.90
2022-09-05T19:59:54.566Z,1.57
2022-09-05T20:02:21.754Z,1.30
2022-09-05T20:04:52.992Z,1.00
2022-09-05T20:07:22.981Z,1.10
2022-09-05T20:09:51.895Z,1.10
2022-09-05T20:12:24.186Z,1.00
2022-09-05T20:14:51.798Z,1.37
2022-09-05T20:17:31.476Z,1.20
2022-09-05T20:20:08.142Z,1.00
2022-09-05T20:22:49.783Z,1.20
2022-09-05T20:25:35.237Z,1.00
2022-09-05T20:28:10.929Z,1.33
2022-09-05T20:30:54.729Z,1.17
2022-09-05T20:33:48.540Z,1.23
2022-09-05T20:43:11.363Z,1.00
2022-09-05T20:43:24.178Z,1.00
2022-09-05T20:43:26.645Z,0.90
2022-09-05T20:45:42.992Z,1.20
2022-09-05T20:54:06.384Z,1.03
2022-09-05T20:54:18.671Z,1.20
2022-09-05T20:54:23.435Z,1.00
2022-09-05T20:56:36.759Z,1.73
2022-09-05T20:59:04.007Z,0.70
2022-09-05T21:01:32.604Z,1.10
2022-09-05T21:04:04.600Z,1.00
2022-09-05T21:06:41.353Z,1.30
2022-09-05T21:09:25.781Z,1.00
2022-09-05T21:11:58.764Z,1.00
2022-09-05T21:14:28.994Z,2.17
2022-09-05T21:17:02.284Z,1.90
2022-09-05T21:19:34.931Z,1.33
2022-09-05T21:22:04.275Z,1.10
2022-09-05T21:24:31.615Z,1.43
2022-09-05T21:27:24.084Z,1.00
2022-09-05T21:29:58.862Z,1.37
2022-09-05T21:32:38.263Z,1.37
2022-09-05T21:35:33.951Z,1.37
2022-09-05T21:37:57.066Z,1.30
2022-09-05T21:40:24.388Z,1.20
2022-09-05T21:45:35.368Z,1.40
2022-09-05T21:47:48.939Z,1.30
2022-09-05T21:48:27.990Z,1.33
2022-09-05T21:50:58.337Z,1.37
2022-09-05T21:56:38.710Z,1.20
2022-09-05T21:57:00.378Z,1.67
2022-09-05T21:59:46.682Z,1.43
2022-09-05T22:02:17.320Z,1.43
2022-09-05T22:04:44.692Z,1.20
2022-09-05T22:07:21.650Z,1.40
2022-09-05T22:10:00.355Z,1.23
2022-09-05T22:12:33.631Z,1.20
2022-09-05T22:15:28.993Z,1.17
2022-09-05T22:17:50.329Z,1.20
2022-09-05T22:20:20.767Z,1.17
2022-09-05T22:22:56.276Z,1.83
2022-09-05T22:25:28.627Z,1.40
2022-09-05T22:28:10.556Z,1.40
2022-09-05T22:30:38.744Z,1.10
2022-09-05T22:33:06.266Z,1.03
2022-09-05T22:35:36.005Z,1.57
2022-09-05T22:38:12.497Z,1.40
2022-09-05T22:40:41.697Z,1.43
2022-09-05T22:43:10.471Z,1.43
2022-09-05T22:45:39.315Z,1.20
2022-09-05T22:48:13.117Z,1.17
2022-09-05T22:50:41.421Z,0.93
2022-09-05T22:53:09.856Z,1.40
2022-09-05T22:55:39.016Z,1.80
2022-09-05T22:58:07.420Z,1.07
2022-09-05T23:00:34.922Z,1.30
2022-09-05T23:03:03.873Z,1.60
2022-09-05T23:05:32.299Z,1.40
2022-09-05T23:08:00.413Z,1.50
2022-09-05T23:10:28.889Z,1.40
2022-09-05T23:12:56.508Z,1.27
2022-09-05T23:15:23.906Z,1.63
2022-09-05T23:17:58.455Z,1.37
2022-09-05T23:20:27.463Z,2.27
2022-09-05T23:22:54.785Z,1.60
2022-09-05T23:25:22.384Z,1.33
2022-09-05T23:27:49.807Z,1.20
2022-09-05T23:30:17.102Z,1.47
2022-09-05T23:32:51.894Z,2.70
2022-09-05T23:35:19.517Z,1.33
2022-09-05T23:37:47.537Z,1.60
2022-09-05T23:40:21.883Z,1.10
2022-09-05T23:42:52.242Z,1.50
2022-09-05T23:45:19.763Z,1.13
2022-09-05T23:47:46.942Z,1.30
2022-09-05T23:50:14.611Z,1.37
2022-09-05T23:52:42.971Z,1.57
2022-09-05T23:55:11.264Z,1.90
2022-09-05T23:57:38.442Z,1.43
